sensor_id;sensor_type;location;lat;lon;timestamp;temperature;humidity
10057;DHT22;5068;51.286;7.518;2022-09-27T00:00:15;10.80;67.10
10057;DHT22;5068;51.286;7.518;2022-09-27T00:01:48;10.80;67.10
10057;DHT22;5068;51.286;7.518;2022-09-27T00:03:22;10.80;67.20
10057;DHT22;5068;51.286;7.518;2022-09-27T00:04:55;10.80;67.20
10057;DHT22;5068;51.286;7.518;2022-09-27T00:06:30;10.80;67.20
10057;DHT22;5068;51.286;7.518;2022-09-27T00:11:35;10.80;66.60
10057;DHT22;5068;51.286;7.518;2022-09-27T00:13:10;10.80;66.30
10057;DHT22;5068;51.286;7.518;2022-09-27T00:14:44;10.80;66.30
10057;DHT22;5068;51.286;7.518;2022-09-27T00:16:18;10.80;66.30
10057;DHT22;5068;51.286;7.518;2022-09-27T00:17:52;10.70;66.20
10057;DHT22;5068;51.286;7.518;2022-09-27T00:19:25;10.80;66.40
10057;DHT22;5068;51.286;7.518;2022-09-27T00:21:04;10.70;66.30
10057;DHT22;5068;51.286;7.518;2022-09-27T00:22:39;10.70;66.30
10057;DHT22;5068;51.286;7.518;2022-09-27T00:24:15;10.70;66.10
10057;DHT22;5068;51.286;7.518;2022-09-27T00:25:56;10.70;66.20
10057;DHT22;5068;51.286;7.518;2022-09-27T00:27:30;10.70;66.30
10057;DHT22;5068;51.286;7.518;2022-09-27T00:29:04;10.70;66.30
10057;DHT22;5068;51.286;7.518;2022-09-27T00:30:42;10.70;67.30
10057;DHT22;5068;51.286;7.518;2022-09-27T00:32:14;10.70;66.60
10057;DHT22;5068;51.286;7.518;2022-09-27T00:33:49;10.60;66.50
10057;DHT22;5068;51.286;7.518;2022-09-27T00:35:24;10.60;66.50
10057;DHT22;5068;51.286;7.518;2022-09-27T00:36:58;10.70;66.80
10057;DHT22;5068;51.286;7.518;2022-09-27T00:38:32;10.70;66.90
10057;DHT22;5068;51.286;7.518;2022-09-27T00:40:05;10.70;66.90
10057;DHT22;5068;51.286;7.518;2022-09-27T00:41:39;10.70;67.00
10057;DHT22;5068;51.286;7.518;2022-09-27T00:43:16;10.60;66.90
10057;DHT22;5068;51.286;7.518;2022-09-27T00:45:11;10.70;66.90
10057;DHT22;5068;51.286;7.518;2022-09-27T00:46:48;10.70;66.60
10057;DHT22;5068;51.286;7.518;2022-09-27T00:48:30;10.70;66.60
10057;DHT22;5068;51.286;7.518;2022-09-27T00:50:13;10.70;66.60
10057;DHT22;5068;51.286;7.518;2022-09-27T00:51:56;10.70;66.60
10057;DHT22;5068;51.286;7.518;2022-09-27T00:53:36;10.70;66.60
10057;DHT22;5068;51.286;7.518;2022-09-27T00:55:20;10.70;66.60
10057;DHT22;5068;51.286;7.518;2022-09-27T00:56:57;10.70;66.50
10057;DHT22;5068;51.286;7.518;2022-09-27T00:58:36;10.70;66.60
10057;DHT22;5068;51.286;7.518;2022-09-27T01:00:15;10.70;66.60
10057;DHT22;5068;51.286;7.518;2022-09-27T01:01:52;10.70;66.70
10057;DHT22;5068;51.286;7.518;2022-09-27T01:03:35;10.70;66.70
10057;DHT22;5068;51.286;7.518;2022-09-27T01:05:19;10.70;66.60
10057;DHT22;5068;51.286;7.518;2022-09-27T01:07:00;10.70;66.60
10057;DHT22;5068;51.286;7.518;2022-09-27T01:08:37;10.70;66.60
10057;DHT22;5068;51.286;7.518;2022-09-27T01:10:15;10.70;66.60
10057;DHT22;5068;51.286;7.518;2022-09-27T01:12:02;10.70;66.60
10057;DHT22;5068;51.286;7.518;2022-09-27T01:14:00;10.70;66.50
10057;DHT22;5068;51.286;7.518;2022-09-27T01:15:59;10.70;66.30
10057;DHT22;5068;51.286;7.518;2022-09-27T01:17:49;10.70;66.20
10057;DHT22;5068;51.286;7.518;2022-09-27T01:19:57;10.70;66.40
10057;DHT22;5068;51.286;7.518;2022-09-27T01:21:50;10.70;66.20
10057;DHT22;5068;51.286;7.518;2022-09-27T01:24:07;10.70;66.10
10057;DHT22;5068;51.286;7.518;2022-09-27T01:26:11;10.60;66.40
10057;DHT22;5068;51.286;7.518;2022-09-27T01:28:07;10.60;66.10
10057;DHT22;5068;51.286;7.518;2022-09-27T01:30:16;10.60;66.00
10057;DHT22;5068;51.286;7.518;2022-09-27T01:32:02;10.60;66.00
10057;DHT22;5068;51.286;7.518;2022-09-27T01:33:43;10.60;66.00
10057;DHT22;5068;51.286;7.518;2022-09-27T01:35:23;10.60;65.90
10057;DHT22;5068;51.286;7.518;2022-09-27T01:37:09;10.60;66.00
10057;DHT22;5068;51.286;7.518;2022-09-27T01:39:00;10.60;66.20
10057;DHT22;5068;51.286;7.518;2022-09-27T01:41:06;10.60;66.20
10057;DHT22;5068;51.286;7.518;2022-09-27T01:43:05;10.60;66.40
10057;DHT22;5068;51.286;7.518;2022-09-27T01:44:49;10.60;66.40
10057;DHT22;5068;51.286;7.518;2022-09-27T01:46:33;10.60;66.20
10057;DHT22;5068;51.286;7.518;2022-09-27T01:48:35;10.60;66.10
10057;DHT22;5068;51.286;7.518;2022-09-27T01:50:26;10.60;66.10
10057;DHT22;5068;51.286;7.518;2022-09-27T01:52:07;10.50;65.90
10057;DHT22;5068;51.286;7.518;2022-09-27T01:53:45;10.60;66.10
10057;DHT22;5068;51.286;7.518;2022-09-27T01:55:42;10.60;66.10
10057;DHT22;5068;51.286;7.518;2022-09-27T01:57:42;10.60;65.90
10057;DHT22;5068;51.286;7.518;2022-09-27T01:59:32;10.50;65.70
10057;DHT22;5068;51.286;7.518;2022-09-27T02:01:21;10.50;65.70
10057;DHT22;5068;51.286;7.518;2022-09-27T02:03:03;10.50;65.80
10057;DHT22;5068;51.286;7.518;2022-09-27T02:05:03;10.50;66.00
10057;DHT22;5068;51.286;7.518;2022-09-27T02:06:42;10.50;65.90
10057;DHT22;5068;51.286;7.518;2022-09-27T02:08:29;10.50;66.00
10057;DHT22;5068;51.286;7.518;2022-09-27T02:10:17;10.50;66.00
10057;DHT22;5068;51.286;7.518;2022-09-27T02:12:03;10.50;65.90
10057;DHT22;5068;51.286;7.518;2022-09-27T02:13:44;10.50;66.00
10057;DHT22;5068;51.286;7.518;2022-09-27T02:15:48;10.50;65.90
10057;DHT22;5068;51.286;7.518;2022-09-27T02:17:43;10.50;66.10
10057;DHT22;5068;51.286;7.518;2022-09-27T02:19:39;10.50;66.10
10057;DHT22;5068;51.286;7.518;2022-09-27T02:21:20;10.40;66.10
10057;DHT22;5068;51.286;7.518;2022-09-27T02:23:04;10.40;66.00
10057;DHT22;5068;51.286;7.518;2022-09-27T02:24:52;10.40;67.00
10057;DHT22;5068;51.286;7.518;2022-09-27T02:26:36;10.40;66.20
10057;DHT22;5068;51.286;7.518;2022-09-27T02:28:21;10.50;66.40
10057;DHT22;5068;51.286;7.518;2022-09-27T02:30:01;10.40;66.20
10057;DHT22;5068;51.286;7.518;2022-09-27T02:31:40;10.40;66.20
10057;DHT22;5068;51.286;7.518;2022-09-27T02:33:14;10.40;66.20
10057;DHT22;5068;51.286;7.518;2022-09-27T02:34:48;10.40;66.20
10057;DHT22;5068;51.286;7.518;2022-09-27T02:36:24;10.40;66.20
10057;DHT22;5068;51.286;7.518;2022-09-27T02:37:58;10.40;66.20
10057;DHT22;5068;51.286;7.518;2022-09-27T02:39:33;10.40;66.30
10057;DHT22;5068;51.286;7.518;2022-09-27T02:41:13;10.40;66.40
10057;DHT22;5068;51.286;7.518;2022-09-27T02:42:48;10.40;66.40
10057;DHT22;5068;51.286;7.518;2022-09-27T02:44:22;10.40;66.40
10057;DHT22;5068;51.286;7.518;2022-09-27T02:46:07;10.40;66.50
10057;DHT22;5068;51.286;7.518;2022-09-27T02:48:03;10.40;66.70
10057;DHT22;5068;51.286;7.518;2022-09-27T02:49:58;10.40;66.50
10057;DHT22;5068;51.286;7.518;2022-09-27T02:52:05;10.40;66.40
10057;DHT22;5068;51.286;7.518;2022-09-27T02:53:55;10.40;66.20
10057;DHT22;5068;51.286;7.518;2022-09-27T02:56:04;10.40;65.60
10057;DHT22;5068;51.286;7.518;2022-09-27T02:58:11;10.30;66.30
10057;DHT22;5068;51.286;7.518;2022-09-27T03:00:29;10.30;65.60
10057;DHT22;5068;51.286;7.518;2022-09-27T03:02:32;10.30;66.10
10057;DHT22;5068;51.286;7.518;2022-09-27T03:04:43;10.30;66.00
10057;DHT22;5068;51.286;7.518;2022-09-27T03:06:21;10.30;66.20
10057;DHT22;5068;51.286;7.518;2022-09-27T03:07:56;10.20;66.00
10057;DHT22;5068;51.286;7.518;2022-09-27T03:09:40;10.20;66.00
10057;DHT22;5068;51.286;7.518;2022-09-27T03:11:15;10.20;66.00
10057;DHT22;5068;51.286;7.518;2022-09-27T03:12:49;10.20;66.10
10057;DHT22;5068;51.286;7.518;2022-09-27T03:14:24;10.20;66.00
10057;DHT22;5068;51.286;7.518;2022-09-27T03:16:06;10.20;66.00
10057;DHT22;5068;51.286;7.518;2022-09-27T03:18:00;10.20;66.10
10057;DHT22;5068;51.286;7.518;2022-09-27T03:19:55;10.20;66.00
10057;DHT22;5068;51.286;7.518;2022-09-27T03:21:48;10.20;66.00
10057;DHT22;5068;51.286;7.518;2022-09-27T03:23:23;10.20;66.00
10057;DHT22;5068;51.286;7.518;2022-09-27T03:24:56;10.20;66.00
10057;DHT22;5068;51.286;7.518;2022-09-27T03:26:30;10.20;66.00
10057;DHT22;5068;51.286;7.518;2022-09-27T03:28:04;10.20;66.10
10057;DHT22;5068;51.286;7.518;2022-09-27T03:29:38;10.20;66.00
10057;DHT22;5068;51.286;7.518;2022-09-27T03:31:13;10.20;66.10
10057;DHT22;5068;51.286;7.518;2022-09-27T03:32:54;10.20;66.00
10057;DHT22;5068;51.286;7.518;2022-09-27T03:34:48;10.20;66.00
10057;DHT22;5068;51.286;7.518;2022-09-27T03:36:22;10.20;66.00
10057;DHT22;5068;51.286;7.518;2022-09-27T03:37:56;10.20;66.00
10057;DHT22;5068;51.286;7.518;2022-09-27T03:39:29;10.20;66.10
10057;DHT22;5068;51.286;7.518;2022-09-27T03:41:04;10.20;66.00
10057;DHT22;5068;51.286;7.518;2022-09-27T03:42:38;10.20;66.10
10057;DHT22;5068;51.286;7.518;2022-09-27T03:44:17;10.20;66.10
10057;DHT22;5068;51.286;7.518;2022-09-27T03:45:51;10.20;66.00
10057;DHT22;5068;51.286;7.518;2022-09-27T03:47:24;10.20;66.20
10057;DHT22;5068;51.286;7.518;2022-09-27T03:48:58;10.10;66.10
10057;DHT22;5068;51.286;7.518;2022-09-27T03:50:33;10.10;66.10
10057;DHT22;5068;51.286;7.518;2022-09-27T03:52:07;10.10;66.10
10057;DHT22;5068;51.286;7.518;2022-09-27T03:53:40;10.10;66.00
10057;DHT22;5068;51.286;7.518;2022-09-27T03:55:17;10.10;65.90
10057;DHT22;5068;51.286;7.518;2022-09-27T03:56:51;10.10;65.90
10057;DHT22;5068;51.286;7.518;2022-09-27T03:58:25;10.10;65.90
10057;DHT22;5068;51.286;7.518;2022-09-27T03:59:59;10.10;65.90
10057;DHT22;5068;51.286;7.518;2022-09-27T04:02:00;10.10;65.70
10057;DHT22;5068;51.286;7.518;2022-09-27T04:03:54;10.10;65.50
10057;DHT22;5068;51.286;7.518;2022-09-27T04:05:35;10.10;65.30
10057;DHT22;5068;51.286;7.518;2022-09-27T04:07:13;10.10;65.20
10057;DHT22;5068;51.286;7.518;2022-09-27T04:08:48;10.10;65.20
10057;DHT22;5068;51.286;7.518;2022-09-27T04:10:23;10.10;65.40
10057;DHT22;5068;51.286;7.518;2022-09-27T04:11:56;10.10;65.50
10057;DHT22;5068;51.286;7.518;2022-09-27T04:13:31;10.10;65.50
10057;DHT22;5068;51.286;7.518;2022-09-27T04:15:05;10.10;65.60
10057;DHT22;5068;51.286;7.518;2022-09-27T04:17:09;10.10;65.60
10057;DHT22;5068;51.286;7.518;2022-09-27T04:18:59;10.10;65.60
10057;DHT22;5068;51.286;7.518;2022-09-27T04:20:54;10.10;65.30
10057;DHT22;5068;51.286;7.518;2022-09-27T04:22:29;10.00;65.20
10057;DHT22;5068;51.286;7.518;2022-09-27T04:24:03;10.00;65.10
10057;DHT22;5068;51.286;7.518;2022-09-27T04:25:37;10.00;65.00
10057;DHT22;5068;51.286;7.518;2022-09-27T04:27:19;10.00;64.80
10057;DHT22;5068;51.286;7.518;2022-09-27T04:28:55;10.00;64.90
10057;DHT22;5068;51.286;7.518;2022-09-27T04:30:28;10.00;65.00
10057;DHT22;5068;51.286;7.518;2022-09-27T04:32:32;10.00;65.20
10057;DHT22;5068;51.286;7.518;2022-09-27T04:34:25;9.90;65.20
10057;DHT22;5068;51.286;7.518;2022-09-27T04:36:22;9.90;65.20
10057;DHT22;5068;51.286;7.518;2022-09-27T04:38:05;9.90;65.20
10057;DHT22;5068;51.286;7.518;2022-09-27T04:39:38;9.90;65.40
10057;DHT22;5068;51.286;7.518;2022-09-27T04:41:12;9.90;65.50
10057;DHT22;5068;51.286;7.518;2022-09-27T04:42:46;9.90;65.60
10057;DHT22;5068;51.286;7.518;2022-09-27T04:44:20;9.90;65.70
10057;DHT22;5068;51.286;7.518;2022-09-27T04:45:54;9.90;65.70
10057;DHT22;5068;51.286;7.518;2022-09-27T04:47:28;9.80;65.60
10057;DHT22;5068;51.286;7.518;2022-09-27T04:49:03;9.80;65.60
10057;DHT22;5068;51.286;7.518;2022-09-27T04:50:39;9.80;65.80
10057;DHT22;5068;51.286;7.518;2022-09-27T04:52:13;9.80;65.90
10057;DHT22;5068;51.286;7.518;2022-09-27T04:53:47;9.80;65.90
10057;DHT22;5068;51.286;7.518;2022-09-27T04:55:21;9.80;66.00
10057;DHT22;5068;51.286;7.518;2022-09-27T04:56:55;9.70;65.80
10057;DHT22;5068;51.286;7.518;2022-09-27T04:58:29;9.80;65.70
10057;DHT22;5068;51.286;7.518;2022-09-27T05:00:06;9.80;65.70
10057;DHT22;5068;51.286;7.518;2022-09-27T05:01:42;9.80;65.90
10057;DHT22;5068;51.286;7.518;2022-09-27T05:03:31;9.80;66.00
10057;DHT22;5068;51.286;7.518;2022-09-27T05:05:14;9.80;66.10
10057;DHT22;5068;51.286;7.518;2022-09-27T05:06:48;9.70;66.90
10057;DHT22;5068;51.286;7.518;2022-09-27T05:08:35;9.70;66.20
10057;DHT22;5068;51.286;7.518;2022-09-27T05:10:23;9.70;66.30
10057;DHT22;5068;51.286;7.518;2022-09-27T05:11:57;9.70;66.40
10057;DHT22;5068;51.286;7.518;2022-09-27T05:13:43;9.70;66.50
10057;DHT22;5068;51.286;7.518;2022-09-27T05:15:17;9.70;66.50
10057;DHT22;5068;51.286;7.518;2022-09-27T05:17:10;9.70;66.50
10057;DHT22;5068;51.286;7.518;2022-09-27T05:19:05;9.70;66.50
10057;DHT22;5068;51.286;7.518;2022-09-27T05:20:58;9.70;66.50
10057;DHT22;5068;51.286;7.518;2022-09-27T05:22:39;9.70;66.50
10057;DHT22;5068;51.286;7.518;2022-09-27T05:24:13;9.70;66.50
10057;DHT22;5068;51.286;7.518;2022-09-27T05:25:46;9.70;66.60
10057;DHT22;5068;51.286;7.518;2022-09-27T05:27:20;9.80;67.70
10057;DHT22;5068;51.286;7.518;2022-09-27T05:28:54;9.70;66.80
10057;DHT22;5068;51.286;7.518;2022-09-27T05:30:30;9.70;66.80
10057;DHT22;5068;51.286;7.518;2022-09-27T05:32:11;9.80;66.70
10057;DHT22;5068;51.286;7.518;2022-09-27T05:33:48;9.80;66.80
10057;DHT22;5068;51.286;7.518;2022-09-27T05:35:41;9.80;66.80
10057;DHT22;5068;51.286;7.518;2022-09-27T05:37:22;9.70;66.80
10057;DHT22;5068;51.286;7.518;2022-09-27T05:38:56;9.80;66.90
10057;DHT22;5068;51.286;7.518;2022-09-27T05:40:30;9.70;66.80
10057;DHT22;5068;51.286;7.518;2022-09-27T05:42:14;9.70;66.80
10057;DHT22;5068;51.286;7.518;2022-09-27T05:43:49;9.70;66.90
10057;DHT22;5068;51.286;7.518;2022-09-27T05:45:24;9.80;67.10
10057;DHT22;5068;51.286;7.518;2022-09-27T05:47:00;9.80;67.10
10057;DHT22;5068;51.286;7.518;2022-09-27T05:48:35;9.80;67.10
10057;DHT22;5068;51.286;7.518;2022-09-27T05:50:11;9.80;66.90
10057;DHT22;5068;51.286;7.518;2022-09-27T05:51:46;9.80;66.70
10057;DHT22;5068;51.286;7.518;2022-09-27T05:53:20;9.80;66.50
10057;DHT22;5068;51.286;7.518;2022-09-27T05:54:53;9.80;66.40
10057;DHT22;5068;51.286;7.518;2022-09-27T05:56:27;9.70;66.40
10057;DHT22;5068;51.286;7.518;2022-09-27T05:58:30;9.80;66.50
10057;DHT22;5068;51.286;7.518;2022-09-27T06:00:15;9.80;66.50
10057;DHT22;5068;51.286;7.518;2022-09-27T06:02:02;9.70;66.50
10057;DHT22;5068;51.286;7.518;2022-09-27T06:03:56;9.70;66.50
10057;DHT22;5068;51.286;7.518;2022-09-27T06:05:50;9.80;66.70
10057;DHT22;5068;51.286;7.518;2022-09-27T06:07:38;9.80;66.70
10057;DHT22;5068;51.286;7.518;2022-09-27T06:09:20;9.70;66.50
10057;DHT22;5068;51.286;7.518;2022-09-27T06:11:00;9.80;66.40
10057;DHT22;5068;51.286;7.518;2022-09-27T06:12:36;9.80;66.40
10057;DHT22;5068;51.286;7.518;2022-09-27T06:14:19;9.80;66.20
10057;DHT22;5068;51.286;7.518;2022-09-27T06:16:03;9.80;66.20
10057;DHT22;5068;51.286;7.518;2022-09-27T06:17:40;9.80;66.30
10057;DHT22;5068;51.286;7.518;2022-09-27T06:19:19;9.70;66.20
10057;DHT22;5068;51.286;7.518;2022-09-27T06:20:53;9.80;66.20
10057;DHT22;5068;51.286;7.518;2022-09-27T06:22:27;9.80;66.00
10057;DHT22;5068;51.286;7.518;2022-09-27T06:24:04;9.70;66.00
10057;DHT22;5068;51.286;7.518;2022-09-27T06:25:40;9.70;66.10
10057;DHT22;5068;51.286;7.518;2022-09-27T06:27:33;9.80;66.10
10057;DHT22;5068;51.286;7.518;2022-09-27T06:29:10;9.80;66.20
10057;DHT22;5068;51.286;7.518;2022-09-27T06:30:51;9.80;66.20
10057;DHT22;5068;51.286;7.518;2022-09-27T06:32:46;9.80;66.40
10057;DHT22;5068;51.286;7.518;2022-09-27T06:34:25;9.80;66.50
10057;DHT22;5068;51.286;7.518;2022-09-27T06:36:00;9.80;66.60
10057;DHT22;5068;51.286;7.518;2022-09-27T06:37:35;9.80;66.50
10057;DHT22;5068;51.286;7.518;2022-09-27T06:39:09;9.80;66.40
10057;DHT22;5068;51.286;7.518;2022-09-27T06:40:55;9.80;66.40
10057;DHT22;5068;51.286;7.518;2022-09-27T06:42:47;9.80;66.40
10057;DHT22;5068;51.286;7.518;2022-09-27T06:44:27;9.80;66.40
10057;DHT22;5068;51.286;7.518;2022-09-27T06:46:20;9.80;66.30
10057;DHT22;5068;51.286;7.518;2022-09-27T06:48:15;9.80;66.00
10057;DHT22;5068;51.286;7.518;2022-09-27T06:49:58;9.80;65.80
10057;DHT22;5068;51.286;7.518;2022-09-27T06:51:37;9.80;65.70
10057;DHT22;5068;51.286;7.518;2022-09-27T06:53:12;9.90;65.70
10057;DHT22;5068;51.286;7.518;2022-09-27T06:54:47;9.90;65.70
10057;DHT22;5068;51.286;7.518;2022-09-27T06:56:21;9.90;65.70
10057;DHT22;5068;51.286;7.518;2022-09-27T06:57:56;9.90;65.70
10057;DHT22;5068;51.286;7.518;2022-09-27T07:00:12;9.90;65.70
10057;DHT22;5068;51.286;7.518;2022-09-27T07:02:17;9.90;65.50
10057;DHT22;5068;51.286;7.518;2022-09-27T07:04:03;9.90;65.40
10057;DHT22;5068;51.286;7.518;2022-09-27T07:05:53;9.90;65.10
10057;DHT22;5068;51.286;7.518;2022-09-27T07:07:48;9.90;65.00
10057;DHT22;5068;51.286;7.518;2022-09-27T07:09:27;9.90;65.00
10057;DHT22;5068;51.286;7.518;2022-09-27T07:11:02;9.90;65.00
10057;DHT22;5068;51.286;7.518;2022-09-27T07:12:37;9.80;64.80
10057;DHT22;5068;51.286;7.518;2022-09-27T07:14:13;9.90;64.90
10057;DHT22;5068;51.286;7.518;2022-09-27T07:15:48;9.90;64.90
10057;DHT22;5068;51.286;7.518;2022-09-27T07:17:22;9.90;65.00
10057;DHT22;5068;51.286;7.518;2022-09-27T07:18:56;9.90;65.10
10057;DHT22;5068;51.286;7.518;2022-09-27T07:20:32;9.90;65.30
10057;DHT22;5068;51.286;7.518;2022-09-27T07:22:08;9.80;65.40
10057;DHT22;5068;51.286;7.518;2022-09-27T07:23:42;9.90;65.70
10057;DHT22;5068;51.286;7.518;2022-09-27T07:25:18;9.90;65.70
10057;DHT22;5068;51.286;7.518;2022-09-27T07:26:53;9.80;65.50
10057;DHT22;5068;51.286;7.518;2022-09-27T07:28:28;9.90;65.60
10057;DHT22;5068;51.286;7.518;2022-09-27T07:30:03;9.90;65.60
10057;DHT22;5068;51.286;7.518;2022-09-27T07:31:38;9.90;65.40
10057;DHT22;5068;51.286;7.518;2022-09-27T07:33:14;9.90;65.10
10057;DHT22;5068;51.286;7.518;2022-09-27T07:34:47;9.90;64.90
10057;DHT22;5068;51.286;7.518;2022-09-27T07:36:23;9.90;64.60
10057;DHT22;5068;51.286;7.518;2022-09-27T07:37:57;9.90;64.30
10057;DHT22;5068;51.286;7.518;2022-09-27T07:39:31;9.90;64.20
10057;DHT22;5068;51.286;7.518;2022-09-27T07:41:07;9.90;64.00
10057;DHT22;5068;51.286;7.518;2022-09-27T07:42:41;9.90;64.20
10057;DHT22;5068;51.286;7.518;2022-09-27T07:44:15;9.80;64.20
10057;DHT22;5068;51.286;7.518;2022-09-27T07:46:09;9.80;64.20
10057;DHT22;5068;51.286;7.518;2022-09-27T07:47:53;9.80;64.20
10057;DHT22;5068;51.286;7.518;2022-09-27T07:49:43;9.80;64.30
10057;DHT22;5068;51.286;7.518;2022-09-27T07:51:37;9.90;64.40
10057;DHT22;5068;51.286;7.518;2022-09-27T07:53:31;9.80;64.10
10057;DHT22;5068;51.286;7.518;2022-09-27T07:55:24;9.80;64.20
10057;DHT22;5068;51.286;7.518;2022-09-27T07:57:07;9.80;64.40
10057;DHT22;5068;51.286;7.518;2022-09-27T07:58:51;9.80;64.60
10057;DHT22;5068;51.286;7.518;2022-09-27T08:00:24;9.80;64.70
10057;DHT22;5068;51.286;7.518;2022-09-27T08:01:58;9.80;64.80
10057;DHT22;5068;51.286;7.518;2022-09-27T08:03:32;9.90;65.10
10057;DHT22;5068;51.286;7.518;2022-09-27T08:05:07;9.90;65.10
10057;DHT22;5068;51.286;7.518;2022-09-27T08:06:44;9.90;65.10
10057;DHT22;5068;51.286;7.518;2022-09-27T08:08:18;9.90;65.00
10057;DHT22;5068;51.286;7.518;2022-09-27T08:09:54;9.90;65.00
10057;DHT22;5068;51.286;7.518;2022-09-27T08:11:28;9.90;65.10
10057;DHT22;5068;51.286;7.518;2022-09-27T08:13:03;9.90;65.00
10057;DHT22;5068;51.286;7.518;2022-09-27T08:14:37;9.90;64.80
10057;DHT22;5068;51.286;7.518;2022-09-27T08:16:18;9.90;64.60
10057;DHT22;5068;51.286;7.518;2022-09-27T08:18:13;10.00;65.00
10057;DHT22;5068;51.286;7.518;2022-09-27T08:20:07;10.00;64.90
10057;DHT22;5068;51.286;7.518;2022-09-27T08:22:03;10.00;64.60
10057;DHT22;5068;51.286;7.518;2022-09-27T08:23:44;10.00;64.50
10057;DHT22;5068;51.286;7.518;2022-09-27T08:25:22;10.00;64.60
10057;DHT22;5068;51.286;7.518;2022-09-27T08:27:16;10.00;64.50
10057;DHT22;5068;51.286;7.518;2022-09-27T08:28:54;10.00;64.10
10057;DHT22;5068;51.286;7.518;2022-09-27T08:30:30;10.00;64.10
10057;DHT22;5068;51.286;7.518;2022-09-27T08:32:05;10.00;64.20
10057;DHT22;5068;51.286;7.518;2022-09-27T08:33:39;10.00;64.20
10057;DHT22;5068;51.286;7.518;2022-09-27T08:35:14;10.00;64.30
10057;DHT22;5068;51.286;7.518;2022-09-27T08:36:48;10.00;64.30
10057;DHT22;5068;51.286;7.518;2022-09-27T08:38:24;10.10;64.50
10057;DHT22;5068;51.286;7.518;2022-09-27T08:39:57;10.10;65.40
10057;DHT22;5068;51.286;7.518;2022-09-27T08:41:36;10.10;64.60
10057;DHT22;5068;51.286;7.518;2022-09-27T08:43:19;10.10;64.60
10057;DHT22;5068;51.286;7.518;2022-09-27T08:45:08;10.10;64.30
10057;DHT22;5068;51.286;7.518;2022-09-27T08:46:52;10.10;64.20
10057;DHT22;5068;51.286;7.518;2022-09-27T08:48:36;10.20;64.00
10057;DHT22;5068;51.286;7.518;2022-09-27T08:50:21;10.20;64.10
10057;DHT22;5068;51.286;7.518;2022-09-27T08:51:59;10.20;64.10
10057;DHT22;5068;51.286;7.518;2022-09-27T08:53:40;10.20;64.00
10057;DHT22;5068;51.286;7.518;2022-09-27T08:55:26;10.20;63.90
10057;DHT22;5068;51.286;7.518;2022-09-27T08:57:14;10.20;63.60
10057;DHT22;5068;51.286;7.518;2022-09-27T08:58:52;10.20;63.10
10057;DHT22;5068;51.286;7.518;2022-09-27T09:00:36;10.20;62.90
10057;DHT22;5068;51.286;7.518;2022-09-27T09:02:16;10.20;62.90
10057;DHT22;5068;51.286;7.518;2022-09-27T09:03:57;10.20;62.90
10057;DHT22;5068;51.286;7.518;2022-09-27T09:05:36;10.20;63.10
10057;DHT22;5068;51.286;7.518;2022-09-27T09:07:23;10.20;63.10
10057;DHT22;5068;51.286;7.518;2022-09-27T09:09:24;10.20;62.90
10057;DHT22;5068;51.286;7.518;2022-09-27T09:11:30;10.20;63.10
10057;DHT22;5068;51.286;7.518;2022-09-27T09:13:41;10.20;63.10
10057;DHT22;5068;51.286;7.518;2022-09-27T09:15:31;10.20;62.90
10057;DHT22;5068;51.286;7.518;2022-09-27T09:17:38;10.20;62.90
10057;DHT22;5068;51.286;7.518;2022-09-27T09:19:43;10.20;62.90
10057;DHT22;5068;51.286;7.518;2022-09-27T09:21:47;10.20;62.90
10057;DHT22;5068;51.286;7.518;2022-09-27T09:23:48;10.20;63.00
10057;DHT22;5068;51.286;7.518;2022-09-27T09:25:45;10.20;62.90
10057;DHT22;5068;51.286;7.518;2022-09-27T09:27:34;10.20;63.00
10057;DHT22;5068;51.286;7.518;2022-09-27T09:29:29;10.20;62.90
10057;DHT22;5068;51.286;7.518;2022-09-27T09:31:18;10.20;62.90
10057;DHT22;5068;51.286;7.518;2022-09-27T09:33:10;10.20;62.90
10057;DHT22;5068;51.286;7.518;2022-09-27T09:34:55;10.20;62.50
10057;DHT22;5068;51.286;7.518;2022-09-27T09:36:36;10.20;62.60
10057;DHT22;5068;51.286;7.518;2022-09-27T09:38:19;10.20;62.90
10057;DHT22;5068;51.286;7.518;2022-09-27T09:39:59;10.20;62.90
10057;DHT22;5068;51.286;7.518;2022-09-27T09:41:49;10.20;62.90
10057;DHT22;5068;51.286;7.518;2022-09-27T09:43:37;10.30;63.00
10057;DHT22;5068;51.286;7.518;2022-09-27T09:45:17;10.30;63.00
10057;DHT22;5068;51.286;7.518;2022-09-27T09:46:56;10.30;63.00
10057;DHT22;5068;51.286;7.518;2022-09-27T09:48:38;10.30;63.00
10057;DHT22;5068;51.286;7.518;2022-09-27T09:50:20;10.30;63.00
10057;DHT22;5068;51.286;7.518;2022-09-27T09:52:01;10.30;63.00
10057;DHT22;5068;51.286;7.518;2022-09-27T09:53:44;10.30;63.00
10057;DHT22;5068;51.286;7.518;2022-09-27T09:55:32;10.30;63.00
10057;DHT22;5068;51.286;7.518;2022-09-27T09:57:13;10.40;62.80
10057;DHT22;5068;51.286;7.518;2022-09-27T09:58:54;10.40;62.50
10057;DHT22;5068;51.286;7.518;2022-09-27T10:00:39;10.40;62.80
10057;DHT22;5068;51.286;7.518;2022-09-27T10:02:22;10.40;62.60
10057;DHT22;5068;51.286;7.518;2022-09-27T10:04:14;10.40;62.10
10057;DHT22;5068;51.286;7.518;2022-09-27T10:05:52;10.40;62.30
10057;DHT22;5068;51.286;7.518;2022-09-27T10:07:26;10.50;62.20
10057;DHT22;5068;51.286;7.518;2022-09-27T10:09:01;10.50;62.20
10057;DHT22;5068;51.286;7.518;2022-09-27T10:10:42;10.50;62.70
10057;DHT22;5068;51.286;7.518;2022-09-27T10:12:37;10.50;62.80
10057;DHT22;5068;51.286;7.518;2022-09-27T10:14:12;10.50;62.50
10057;DHT22;5068;51.286;7.518;2022-09-27T10:15:52;10.60;62.00
10057;DHT22;5068;51.286;7.518;2022-09-27T10:17:36;10.50;61.70
10057;DHT22;5068;51.286;7.518;2022-09-27T10:19:19;10.50;61.50
10057;DHT22;5068;51.286;7.518;2022-09-27T10:21:01;10.60;61.70
10057;DHT22;5068;51.286;7.518;2022-09-27T10:22:41;10.60;62.20
10057;DHT22;5068;51.286;7.518;2022-09-27T10:24:53;10.60;62.30
10057;DHT22;5068;51.286;7.518;2022-09-27T10:26:44;10.60;62.20
10057;DHT22;5068;51.286;7.518;2022-09-27T10:28:29;10.60;62.30
10057;DHT22;5068;51.286;7.518;2022-09-27T10:30:12;10.60;62.20
10057;DHT22;5068;51.286;7.518;2022-09-27T10:31:55;10.70;62.60
10057;DHT22;5068;51.286;7.518;2022-09-27T10:33:51;10.70;62.80
10057;DHT22;5068;51.286;7.518;2022-09-27T10:35:35;10.70;62.10
10057;DHT22;5068;51.286;7.518;2022-09-27T10:37:15;10.70;62.10
10057;DHT22;5068;51.286;7.518;2022-09-27T10:39:02;10.70;62.30
10057;DHT22;5068;51.286;7.518;2022-09-27T10:40:44;10.80;62.70
10057;DHT22;5068;51.286;7.518;2022-09-27T10:42:30;10.80;62.90
10057;DHT22;5068;51.286;7.518;2022-09-27T10:44:23;10.80;63.20
10057;DHT22;5068;51.286;7.518;2022-09-27T10:46:12;10.90;62.20
10057;DHT22;5068;51.286;7.518;2022-09-27T10:47:55;10.90;61.90
10057;DHT22;5068;51.286;7.518;2022-09-27T10:49:40;10.90;61.50
10057;DHT22;5068;51.286;7.518;2022-09-27T10:51:34;11.00;61.00
10057;DHT22;5068;51.286;7.518;2022-09-27T10:53:13;11.00;60.90
10057;DHT22;5068;51.286;7.518;2022-09-27T10:54:54;11.00;60.90
10057;DHT22;5068;51.286;7.518;2022-09-27T10:56:32;11.00;60.60
10057;DHT22;5068;51.286;7.518;2022-09-27T10:58:17;11.00;60.60
10057;DHT22;5068;51.286;7.518;2022-09-27T10:59:55;11.10;60.70
10057;DHT22;5068;51.286;7.518;2022-09-27T11:01:39;11.10;60.80
10057;DHT22;5068;51.286;7.518;2022-09-27T11:03:23;11.10;60.70
10057;DHT22;5068;51.286;7.518;2022-09-27T11:05:07;11.10;60.80
10057;DHT22;5068;51.286;7.518;2022-09-27T11:06:48;11.10;60.80